Terminal Aerodrome Forecast
Issued by NWS Blacksburg, VA

Home | Current Version | Previous Version | Text Only | Print | Product List | Glossary On
Versions: 1 2 3 4 5 6 7 8 9 10 11 12 13 14 15 16
000
FTUS41 KRNK 240600 RRA
TAFDAN
TAF
KDAN 240600Z 2406/2506 05009KT 6SM -RA BKN003 OVC008
      TEMPO 2406/2410 3SM RA SCT003 OVC008
     FM241000 05011KT 3SM +RA OVC008
     FM250300 03014KT 3SM RA OVC008=

USA.gov is the U.S. government's official web portal to all federal, state and local government web resources and services.